createdAt,value
2022-12-16T00:01:15.761Z,40.57
2022-12-16T00:03:47.823Z,45.40
2022-12-16T00:06:15.946Z,41.93
2022-12-16T00:08:44.422Z,42.50
2022-12-16T00:11:12.178Z,44.70
2022-12-16T00:13:41.871Z,41.70
2022-12-16T00:16:12.038Z,44.60
2022-12-16T00:18:39.993Z,45.53
2022-12-16T00:21:08.649Z,42.77
2022-12-16T00:23:39.084Z,46.90
2022-12-16T00:26:07.252Z,45.77
2022-12-16T00:28:35.228Z,43.60
2022-12-16T00:31:04.811Z,45.10
2022-12-16T00:33:33.225Z,50.03
2022-12-16T00:36:01.318Z,48.27
2022-12-16T00:38:29.082Z,49.47
2022-12-16T00:40:57.201Z,46.03
2022-12-16T00:43:25.173Z,48.20
2022-12-16T00:45:53.291Z,51.80
2022-12-16T00:48:23.457Z,47.63
2022-12-16T00:50:52.404Z,50.77
2022-12-16T00:53:24.367Z,52.43
2022-12-16T00:55:52.295Z,49.37
2022-12-16T00:58:20.238Z,52.17
2022-12-16T01:00:48.236Z,52.03
2022-12-16T01:03:33.107Z,46.40
2022-12-16T01:06:02.653Z,52.33
2022-12-16T01:08:30.518Z,49.90
2022-12-16T01:11:00.124Z,49.50
2022-12-16T01:13:28.212Z,50.03
2022-12-16T01:15:56.447Z,47.07
2022-12-16T01:18:24.411Z,50.00
2022-12-16T01:20:52.421Z,51.93
2022-12-16T01:23:24.089Z,48.67
2022-12-16T01:25:56.765Z,48.70
2022-12-16T01:28:24.649Z,49.57
2022-12-16T01:30:57.169Z,50.37
2022-12-16T01:33:25.344Z,47.13
2022-12-16T01:36:00.493Z,46.07
2022-12-16T01:38:29.846Z,49.07
2022-12-16T01:40:58.000Z,47.30
2022-12-16T01:43:29.768Z,49.13
2022-12-16T01:46:01.750Z,48.53
2022-12-16T01:48:40.059Z,47.17
2022-12-16T01:51:11.360Z,49.43
2022-12-16T01:53:43.964Z,49.17
2022-12-16T01:56:16.622Z,46.50
2022-12-16T01:58:47.055Z,47.53
2022-12-16T02:01:17.014Z,46.10
2022-12-16T02:03:45.813Z,44.90
2022-12-16T02:06:13.761Z,44.57
2022-12-16T02:08:43.114Z,43.03
2022-12-16T02:11:43.277Z,41.53
2022-12-16T02:14:34.520Z,42.20
2022-12-16T02:17:09.359Z,44.97
2022-12-16T02:20:10.272Z,44.27
2022-12-16T02:22:54.111Z,42.97
2022-12-16T02:25:51.524Z,44.27
2022-12-16T02:28:35.577Z,41.90
2022-12-16T02:31:17.716Z,43.40
2022-12-16T02:33:58.931Z,43.83
2022-12-16T02:36:40.815Z,42.17
2022-12-16T02:39:15.774Z,45.57
2022-12-16T02:41:49.089Z,44.80
2022-12-16T02:44:19.604Z,43.93
2022-12-16T02:46:55.815Z,41.13
2022-12-16T02:49:48.394Z,42.03
2022-12-16T02:52:18.746Z,38.90
2022-12-16T02:54:47.807Z,39.30
2022-12-16T02:57:32.837Z,44.40
2022-12-16T03:00:05.928Z,42.63
2022-12-16T03:02:43.182Z,49.37
2022-12-16T03:05:15.807Z,42.33
2022-12-16T03:07:46.396Z,42.37
2022-12-16T03:10:20.609Z,43.97
2022-12-16T03:12:48.595Z,45.83
2022-12-16T03:15:20.210Z,43.90
2022-12-16T03:17:52.010Z,44.73
2022-12-16T03:20:27.698Z,45.20
2022-12-16T03:23:00.668Z,43.70
2022-12-16T03:25:31.232Z,42.57
2022-12-16T03:28:05.142Z,41.97
2022-12-16T03:30:37.753Z,44.77
2022-12-16T03:33:14.146Z,45.20
2022-12-16T03:35:47.293Z,46.90
2022-12-16T03:38:16.513Z,42.60
2022-12-16T03:40:45.758Z,41.63
2022-12-16T03:43:15.942Z,43.77
2022-12-16T03:45:46.878Z,47.23
2022-12-16T03:48:17.433Z,43.83
2022-12-16T03:50:45.413Z,44.63
2022-12-16T03:53:13.360Z,44.57
2022-12-16T03:55:41.270Z,44.83
2022-12-16T03:58:09.282Z,44.33
2022-12-16T04:00:37.435Z,46.77
2022-12-16T04:03:05.670Z,42.77
2022-12-16T04:05:35.132Z,44.27
2022-12-16T04:08:03.101Z,44.23
2022-12-16T04:10:49.196Z,45.97
2022-12-16T04:13:34.769Z,42.60
2022-12-16T04:16:20.942Z,48.90
2022-12-16T04:19:07.221Z,48.03
2022-12-16T04:21:55.624Z,47.27
2022-12-16T04:24:31.406Z,44.47
2022-12-16T04:27:16.954Z,47.30
2022-12-16T04:29:59.161Z,44.30
2022-12-16T04:32:27.335Z,46.63
2022-12-16T04:34:54.219Z,44.63
2022-12-16T04:37:41.201Z,46.07
2022-12-16T04:40:27.090Z,42.90
2022-12-16T04:43:12.457Z,43.70
2022-12-16T04:45:58.059Z,43.60
2022-12-16T04:48:43.272Z,47.17
2022-12-16T04:51:28.494Z,44.73
2022-12-16T04:54:15.492Z,44.03
2022-12-16T04:57:00.924Z,41.37
2022-12-16T04:59:57.921Z,45.67
2022-12-16T05:02:43.256Z,44.73
2022-12-16T05:05:28.877Z,47.87
2022-12-16T05:08:14.308Z,46.23
2022-12-16T05:11:01.335Z,48.57
2022-12-16T05:13:46.486Z,46.67
2022-12-16T05:16:32.142Z,52.17
2022-12-16T05:19:17.309Z,47.30
2022-12-16T05:22:02.396Z,45.63
2022-12-16T05:24:52.664Z,45.87
2022-12-16T05:27:40.156Z,43.07
2022-12-16T05:30:31.973Z,40.83
2022-12-16T05:33:15.577Z,43.07
2022-12-16T05:36:01.153Z,43.87
2022-12-16T05:38:46.566Z,41.47
2022-12-16T05:41:31.876Z,45.20
2022-12-16T05:44:18.858Z,44.27
2022-12-16T05:47:04.314Z,44.83
2022-12-16T05:49:49.606Z,46.40
2022-12-16T05:52:35.565Z,44.73
2022-12-16T05:55:20.691Z,43.17
2022-12-16T05:58:08.289Z,45.10
2022-12-16T06:00:55.335Z,45.03
2022-12-16T06:03:40.891Z,42.00
2022-12-16T06:06:31.565Z,44.53
2022-12-16T06:09:16.994Z,40.93
2022-12-16T06:12:01.548Z,43.40
2022-12-16T06:14:46.957Z,43.13
2022-12-16T06:17:33.846Z,41.33
2022-12-16T06:20:19.310Z,39.63
2022-12-16T06:23:10.496Z,38.73
2022-12-16T06:25:55.996Z,41.67
2022-12-16T06:28:45.727Z,41.87
2022-12-16T06:31:31.904Z,40.80
2022-12-16T06:34:18.767Z,40.30
2022-12-16T06:37:04.126Z,41.30
2022-12-16T06:39:52.913Z,37.67
2022-12-16T06:42:38.428Z,39.60
2022-12-16T06:45:26.205Z,42.43
2022-12-16T06:48:14.449Z,40.33
2022-12-16T06:51:01.516Z,38.47
2022-12-16T06:53:46.806Z,39.37
2022-12-16T06:56:32.218Z,37.47
2022-12-16T06:59:17.767Z,39.07
2022-12-16T07:02:03.990Z,35.50
2022-12-16T07:04:49.351Z,40.63
2022-12-16T07:07:36.521Z,35.63
2022-12-16T07:10:21.836Z,36.40
2022-12-16T07:13:07.353Z,35.47
2022-12-16T07:15:52.657Z,34.77
2022-12-16T07:18:38.197Z,35.80
2022-12-16T07:21:24.220Z,35.07
2022-12-16T07:24:11.204Z,35.33
2022-12-16T07:26:56.616Z,38.10
2022-12-16T07:29:42.016Z,36.23
2022-12-16T07:32:27.508Z,37.27
2022-12-16T07:35:21.345Z,34.13
2022-12-16T07:38:06.858Z,33.47
2022-12-16T07:40:53.852Z,32.50
2022-12-16T07:43:39.251Z,32.60
2022-12-16T07:46:24.857Z,35.40
2022-12-16T07:49:10.145Z,32.93
2022-12-16T07:51:56.013Z,33.40
2022-12-16T07:54:41.256Z,32.37
2022-12-16T07:57:28.440Z,34.50
2022-12-16T08:00:14.020Z,32.47
2022-12-16T08:02:59.772Z,32.53
2022-12-16T08:05:45.574Z,31.57
2022-12-16T08:08:31.021Z,31.67
2022-12-16T08:11:16.442Z,29.73
2022-12-16T08:14:03.503Z,33.47
2022-12-16T08:16:48.945Z,30.10
2022-12-16T08:19:34.225Z,32.73
2022-12-16T08:22:19.667Z,34.93
2022-12-16T08:25:05.073Z,32.07
2022-12-16T08:27:52.889Z,33.03
2022-12-16T08:30:40.091Z,34.00
2022-12-16T08:33:25.188Z,30.63
2022-12-16T08:36:10.738Z,30.60
2022-12-16T08:38:56.044Z,27.20
2022-12-16T08:41:41.525Z,28.97
2022-12-16T08:44:26.890Z,30.03
2022-12-16T08:47:13.986Z,29.97
2022-12-16T08:50:01.798Z,27.47
2022-12-16T08:52:48.854Z,26.40
2022-12-16T08:55:34.326Z,26.83
2022-12-16T08:58:19.712Z,25.20
2022-12-16T09:01:07.377Z,29.80
2022-12-16T09:03:54.899Z,26.57
2022-12-16T09:06:41.332Z,27.27
2022-12-16T09:09:27.023Z,27.60
2022-12-16T09:12:12.887Z,29.83
2022-12-16T09:14:58.689Z,26.57
2022-12-16T09:17:44.080Z,28.77
2022-12-16T09:20:31.218Z,28.53
2022-12-16T09:23:20.763Z,26.70
2022-12-16T09:26:06.188Z,26.07
2022-12-16T09:28:52.261Z,25.70
2022-12-16T09:31:38.281Z,23.47
2022-12-16T09:34:24.090Z,29.07
2022-12-16T09:37:11.080Z,23.83
2022-12-16T09:39:56.573Z,31.17
2022-12-16T09:42:50.032Z,24.00
2022-12-16T09:45:44.625Z,25.20
2022-12-16T09:48:33.791Z,24.17
2022-12-16T09:51:23.937Z,28.17
2022-12-16T09:54:14.220Z,24.13
2022-12-16T09:57:02.408Z,24.93
2022-12-16T09:59:52.342Z,26.20
2022-12-16T10:02:39.704Z,25.83
2022-12-16T10:05:30.042Z,26.97
2022-12-16T10:08:23.588Z,28.03
2022-12-16T10:11:14.912Z,23.67
2022-12-16T10:14:06.938Z,25.60
2022-12-16T10:17:01.146Z,24.70
2022-12-16T10:19:57.373Z,28.00
2022-12-16T10:22:53.837Z,33.57
2022-12-16T10:25:41.665Z,30.33
2022-12-16T10:28:35.190Z,32.83
2022-12-16T10:31:26.719Z,28.80
2022-12-16T10:34:14.998Z,23.90
2022-12-16T10:37:04.810Z,33.10
2022-12-16T10:39:55.963Z,25.10
2022-12-16T10:42:45.583Z,23.97
2022-12-16T10:45:39.314Z,22.97
2022-12-16T10:48:24.677Z,21.63
2022-12-16T10:51:09.977Z,21.97
2022-12-16T10:53:55.411Z,23.30
2022-12-16T10:57:00.426Z,22.23
2022-12-16T10:59:54.356Z,20.67
2022-12-16T11:02:43.997Z,22.70
2022-12-16T11:05:48.714Z,22.13
2022-12-16T11:08:49.105Z,20.50
2022-12-16T11:11:42.828Z,22.93
2022-12-16T11:14:36.015Z,19.10
2022-12-16T11:17:37.182Z,39.87
2022-12-16T11:20:42.995Z,37.67
2022-12-16T11:23:37.871Z,36.43
2022-12-16T11:26:36.613Z,21.47
2022-12-16T11:29:30.092Z,28.03
2022-12-16T11:32:19.953Z,29.87
2022-12-16T11:35:10.513Z,22.00
2022-12-16T11:37:59.857Z,20.20
2022-12-16T11:40:48.026Z,20.77
2022-12-16T11:43:36.954Z,20.27
2022-12-16T11:46:27.260Z,23.53
2022-12-16T11:49:21.875Z,15.63
2022-12-16T11:52:36.716Z,15.07
2022-12-16T11:56:04.555Z,15.07
2022-12-16T11:58:50.296Z,13.40
2022-12-16T12:01:45.590Z,14.90
2022-12-16T12:04:32.005Z,13.97
2022-12-16T12:07:44.887Z,13.90
2022-12-16T12:10:55.978Z,14.50
2022-12-16T12:13:58.614Z,14.03
2022-12-16T12:16:53.303Z,12.33
2022-12-16T12:19:48.082Z,17.20
2022-12-16T12:22:48.709Z,26.90
2022-12-16T12:25:42.351Z,25.10
2022-12-16T12:28:39.781Z,46.37
2022-12-16T12:31:37.364Z,32.00
2022-12-16T12:34:32.714Z,34.87
2022-12-16T12:37:26.630Z,63.60
2022-12-16T12:40:17.572Z,38.33
2022-12-16T12:43:08.078Z,23.40
2022-12-16T12:46:19.824Z,22.90
2022-12-16T12:49:12.889Z,13.57
2022-12-16T12:52:06.804Z,14.30
2022-12-16T12:55:01.308Z,16.43
2022-12-16T12:57:47.581Z,13.07
2022-12-16T13:00:38.181Z,14.37
2022-12-16T13:03:31.154Z,12.93
2022-12-16T13:06:18.244Z,15.23
2022-12-16T13:09:14.974Z,15.77
2022-12-16T13:12:33.658Z,14.77
2022-12-16T13:15:22.712Z,13.33
2022-12-16T13:18:47.207Z,14.67
2022-12-16T13:22:09.242Z,15.43
2022-12-16T13:25:02.833Z,14.63
2022-12-16T13:28:03.203Z,15.27
2022-12-16T13:30:50.369Z,17.70
2022-12-16T13:33:45.399Z,20.10
2022-12-16T13:36:32.611Z,17.97
2022-12-16T13:39:37.742Z,18.60
2022-12-16T13:42:24.771Z,16.27
2022-12-16T13:45:17.378Z,17.03
2022-12-16T13:48:23.756Z,18.83
2022-12-16T13:51:18.575Z,18.73
2022-12-16T13:54:10.321Z,18.23
2022-12-16T13:56:59.270Z,20.60
2022-12-16T13:59:49.123Z,19.80
2022-12-16T14:02:42.875Z,18.40
2022-12-16T14:05:37.159Z,21.27
2022-12-16T14:08:25.069Z,20.40
2022-12-16T14:11:17.459Z,18.43
2022-12-16T14:14:09.003Z,19.40
2022-12-16T14:17:06.021Z,17.97
2022-12-16T14:19:59.943Z,17.50
2022-12-16T14:22:59.478Z,18.90
2022-12-16T14:25:44.829Z,18.30
2022-12-16T14:28:41.725Z,16.90
2022-12-16T14:31:34.813Z,18.37
2022-12-16T14:34:22.674Z,15.93
2022-12-16T14:37:08.143Z,16.87
2022-12-16T14:40:03.497Z,17.07
2022-12-16T14:42:49.976Z,17.10
2022-12-16T14:45:46.644Z,22.37
2022-12-16T14:48:49.611Z,15.63
2022-12-16T14:51:48.415Z,15.93
2022-12-16T14:54:39.767Z,16.30
2022-12-16T14:57:30.770Z,14.43
2022-12-16T15:00:20.921Z,14.63
2022-12-16T15:03:09.207Z,14.57
2022-12-16T15:05:57.332Z,13.93
2022-12-16T15:08:45.437Z,14.83
2022-12-16T15:11:36.532Z,14.70
2022-12-16T15:14:22.848Z,14.60
2022-12-16T15:17:10.671Z,18.40
2022-12-16T15:20:03.559Z,31.80
2022-12-16T15:22:49.676Z,20.43
2022-12-16T15:25:42.250Z,35.27
2022-12-16T15:28:43.521Z,32.87
2022-12-16T15:31:34.158Z,17.93
2022-12-16T15:34:46.370Z,23.13
2022-12-16T15:37:56.102Z,17.83
2022-12-16T15:40:49.043Z,15.67
2022-12-16T15:43:44.055Z,18.03
2022-12-16T15:46:40.686Z,15.27
2022-12-16T15:49:36.954Z,16.10
2022-12-16T15:52:40.897Z,16.73
2022-12-16T15:55:42.530Z,18.07
2022-12-16T15:58:39.282Z,19.23
2022-12-16T16:01:25.633Z,16.40
2022-12-16T16:04:12.531Z,16.23
2022-12-16T16:07:00.712Z,19.03
2022-12-16T16:09:48.717Z,14.30
2022-12-16T16:12:50.100Z,13.70
2022-12-16T16:15:36.941Z,16.83
2022-12-16T16:18:24.838Z,16.37
2022-12-16T16:21:10.754Z,22.27
2022-12-16T16:23:56.268Z,18.70
2022-12-16T16:26:45.364Z,16.27
2022-12-16T16:29:31.022Z,15.87
2022-12-16T16:32:18.018Z,16.53
2022-12-16T16:35:03.456Z,16.23
2022-12-16T16:37:48.640Z,13.23
2022-12-16T16:40:37.597Z,16.27
2022-12-16T16:43:23.353Z,16.37
2022-12-16T16:46:14.393Z,18.43
2022-12-16T16:49:01.510Z,15.37
2022-12-16T16:51:47.037Z,16.97
2022-12-16T16:54:32.233Z,19.50
2022-12-16T16:57:19.661Z,18.70
2022-12-16T17:00:05.582Z,16.73
2022-12-16T17:02:51.140Z,22.73
2022-12-16T17:05:37.997Z,22.07
2022-12-16T17:08:23.668Z,22.90
2022-12-16T17:11:08.956Z,27.90
2022-12-16T17:13:54.532Z,25.90
2022-12-16T17:16:39.978Z,27.60
2022-12-16T17:19:25.178Z,23.70
2022-12-16T17:22:12.273Z,28.63
2022-12-16T17:24:57.549Z,31.77
2022-12-16T17:27:43.984Z,29.60
2022-12-16T17:30:33.915Z,28.23
2022-12-16T17:33:19.231Z,31.13
2022-12-16T17:36:07.164Z,28.60
2022-12-16T17:38:56.901Z,28.07
2022-12-16T17:41:42.546Z,28.33
2022-12-16T17:44:36.498Z,30.27
2022-12-16T17:47:22.469Z,28.30
2022-12-16T17:50:07.834Z,30.37
2022-12-16T17:52:53.409Z,27.53
2022-12-16T17:55:39.494Z,27.80
2022-12-16T17:58:24.968Z,27.33
2022-12-16T18:01:10.244Z,26.17
2022-12-16T18:03:55.667Z,30.83
2022-12-16T18:06:41.001Z,26.70
2022-12-16T18:09:26.318Z,28.20
2022-12-16T18:12:12.956Z,27.47
2022-12-16T18:14:58.284Z,27.27
2022-12-16T18:17:48.963Z,29.93
2022-12-16T18:20:34.457Z,35.90
2022-12-16T18:23:28.380Z,32.60
2022-12-16T18:26:19.184Z,31.17
2022-12-16T18:29:06.285Z,29.37
2022-12-16T18:31:51.663Z,29.03
2022-12-16T18:34:37.379Z,32.53
2022-12-16T18:37:23.241Z,30.13
2022-12-16T18:40:08.522Z,30.87
2022-12-16T18:42:54.275Z,80.23
2022-12-16T18:45:41.203Z,58.57
2022-12-16T18:48:26.609Z,72.67
2022-12-16T18:51:13.126Z,65.13
2022-12-16T18:53:58.488Z,39.70
2022-12-16T18:56:44.060Z,33.00
2022-12-16T18:59:29.417Z,29.07
2022-12-16T19:02:16.475Z,28.17
2022-12-16T19:05:01.991Z,26.57
2022-12-16T19:07:47.382Z,32.17
2022-12-16T19:10:33.306Z,28.37
2022-12-16T19:13:19.194Z,28.53
2022-12-16T19:16:12.121Z,32.03
2022-12-16T19:18:58.816Z,30.87
2022-12-16T19:24:48.448Z,27.70
2022-12-16T19:27:33.771Z,30.10
2022-12-16T19:30:18.983Z,28.17
2022-12-16T19:33:03.115Z,30.83
2022-12-16T19:35:50.140Z,34.70
2022-12-16T19:38:35.809Z,30.43
2022-12-16T19:41:21.100Z,33.93
2022-12-16T19:44:06.815Z,31.83
2022-12-16T19:46:53.346Z,32.10
2022-12-16T19:49:44.449Z,31.63
2022-12-16T19:52:48.499Z,31.83
2022-12-16T19:55:34.109Z,27.23
2022-12-16T19:58:19.408Z,28.30
2022-12-16T20:01:05.090Z,30.47
2022-12-16T20:03:52.340Z,30.53
2022-12-16T20:06:40.819Z,29.83
2022-12-16T20:09:27.670Z,32.30
2022-12-16T20:12:13.015Z,34.10
2022-12-16T20:14:58.346Z,31.33
2022-12-16T20:17:43.869Z,29.60
2022-12-16T20:20:29.369Z,34.07
2022-12-16T20:23:15.427Z,31.17
2022-12-16T20:26:02.401Z,31.33
2022-12-16T20:28:47.879Z,31.07
2022-12-16T20:31:33.316Z,29.80
2022-12-16T20:34:18.807Z,34.13
2022-12-16T20:37:05.777Z,32.70
2022-12-16T20:39:56.644Z,31.27
2022-12-16T20:42:43.963Z,30.67
2022-12-16T20:45:29.531Z,30.23
2022-12-16T20:48:15.382Z,34.90
2022-12-16T20:51:00.695Z,31.23
2022-12-16T20:53:56.533Z,35.93
2022-12-16T20:56:42.124Z,33.77
2022-12-16T20:59:28.945Z,32.47
2022-12-16T21:02:23.252Z,32.37
2022-12-16T21:05:09.689Z,31.87
2022-12-16T21:07:55.006Z,31.07
2022-12-16T21:10:42.193Z,32.00
2022-12-16T21:13:29.191Z,30.93
2022-12-16T21:16:17.818Z,33.43
2022-12-16T21:19:03.224Z,34.43
2022-12-16T21:21:58.506Z,32.73
2022-12-16T21:24:44.000Z,36.67
2022-12-16T21:27:29.505Z,34.57
2022-12-16T21:30:14.913Z,34.23
2022-12-16T21:33:01.827Z,33.23
2022-12-16T21:35:47.021Z,34.70
2022-12-16T21:38:32.421Z,36.87
2022-12-16T21:41:18.082Z,36.53
2022-12-16T21:44:03.447Z,35.30
2022-12-16T21:46:49.063Z,36.43
2022-12-16T21:49:35.989Z,34.60
2022-12-16T21:52:21.478Z,33.93
2022-12-16T21:55:06.920Z,37.83
2022-12-16T21:57:53.269Z,34.53
2022-12-16T22:00:39.312Z,37.50
2022-12-16T22:03:25.057Z,35.13
2022-12-16T22:06:11.784Z,33.63
2022-12-16T22:08:57.180Z,33.93
2022-12-16T22:11:42.407Z,34.27
2022-12-16T22:14:27.965Z,33.53
2022-12-16T22:17:13.825Z,35.57
2022-12-16T22:20:01.438Z,33.13
2022-12-16T22:22:48.350Z,34.97
2022-12-16T22:25:33.841Z,36.10
2022-12-16T22:28:18.969Z,36.33
2022-12-16T22:31:15.447Z,33.60
2022-12-16T22:34:01.880Z,36.63
2022-12-16T22:36:47.217Z,31.53
2022-12-16T22:39:33.907Z,40.50
2022-12-16T22:42:19.642Z,36.37
2022-12-16T22:45:05.077Z,32.70
2022-12-16T22:47:50.394Z,35.23
2022-12-16T22:50:41.047Z,37.40
2022-12-16T22:53:26.541Z,36.90
2022-12-16T22:56:14.609Z,36.77
2022-12-16T22:59:00.023Z,34.50
2022-12-16T23:01:45.830Z,32.07
2022-12-16T23:04:31.568Z,34.90
2022-12-16T23:07:16.955Z,35.60
2022-12-16T23:10:02.491Z,35.90
2022-12-16T23:12:49.501Z,40.13
2022-12-16T23:15:34.991Z,34.87
2022-12-16T23:18:20.233Z,33.20
2022-12-16T23:21:05.998Z,32.00
2022-12-16T23:23:51.819Z,31.23
2022-12-16T23:26:38.266Z,31.23
2022-12-16T23:29:25.970Z,34.17
2022-12-16T23:32:11.551Z,31.57
2022-12-16T23:32:29.617Z,29.57
2022-12-16T23:34:56.997Z,32.03
2022-12-16T23:37:42.424Z,30.67
2022-12-16T23:40:29.025Z,29.70
2022-12-16T23:43:14.412Z,28.00
2022-12-16T23:46:03.147Z,31.33
2022-12-16T23:48:48.640Z,30.03
2022-12-16T23:51:34.267Z,30.03
2022-12-16T23:54:19.756Z,30.60
2022-12-16T23:57:05.253Z,31.87
2022-12-16T23:59:50.679Z,30.10
